Flight Track Log - Related Links

Times and Time Zones

All times are in EDT time to prevent confusion due to time zone crossing. See the DAL8949 flight status page for this flight to view local times or setup timezone preferences in your user account.

Time Position Orientation Groundspeed Altitude Reporting Facility
EDT Latitude Longitude Course Direction KTS MPH feet Rate Location/Type
Fri 11:50:54 AM 25.7983 -80.2653 84° East 165 190 1,000  Level Miami Center
Fri 11:52:01 AM 25.8039 -80.2078 84° East 194 223 3,000 2,000 Climbing Miami Center
Fri 11:53:03 AM 25.8181 -80.1342 78° East 254 292 5,300 2,198 Climbing Miami Center
Fri 11:53:42 AM 25.8664 -80.1239 11° North 277 319 6,700 1,030 Climbing Miami Center
Fri 11:54:42 AM 25.9406 -80.1675 332° Northwest 277 319 7,000 300 Climbing Miami Center
Fri 11:55:42 AM 25.9700 -80.2447 293° West 289 333 7,300 1,700 Climbing Miami Center
Fri 11:56:42 AM 25.9972 -80.3311 289° West 289 333 10,400 2,200 Climbing Miami Center
Fri 11:57:42 AM 26.0244 -80.4197 289° West 315 362 11,700 1,350 Climbing Miami Center
Fri 11:58:42 AM 26.0572 -80.5317 288° West 357 411 13,100 1,900 Climbing Miami Center
Fri 11:59:42 AM 26.0961 -80.6392 292° West 397 457 15,500 1,650 Climbing Miami Center
Fri 12:00:42 PM 26.1797 -80.7228 318° Northwest 397 457 16,400 1,450 Climbing Miami Center
Fri 12:01:42 PM 26.2689 -80.8253 314° West 404 465 18,400 1,800 Climbing Miami Center
Fri 12:02:42 PM 26.3603 -80.9164 318° Northwest 433 498 20,000 1,650 Climbing Miami Center
Fri 12:03:42 PM 26.4517 -81.0100 317° Northwest 443 510 21,700 1,500 Climbing Miami Center
Fri 12:04:42 PM 26.5469 -81.1039 319° Northwest 443 510 23,000 1,200 Climbing Miami Center
Fri 12:05:42 PM 26.6403 -81.2003 317° Northwest 455 524 24,100 1,250 Climbing Miami Center
Fri 12:06:42 PM 26.7294 -81.2894 318° Northwest 468 539 25,500 1,650 Climbing Miami Center
Fri 12:07:42 PM 26.8344 -81.4031 316° Northwest 473 544 27,400 1,400 Climbing Miami Center
Fri 12:08:42 PM 26.9406 -81.4861 325° Northwest 466 536 28,300 750 Climbing Miami Center
Fri 12:09:42 PM 27.0617 -81.5469 336° Northwest 468 539 28,900 1,000 Climbing Miami Center
Fri 12:10:42 PM 27.1806 -81.6172 332° Northwest 479 551 30,300 1,200 Climbing Miami Center
Fri 12:11:42 PM 27.2847 -81.6844 330° Northwest 484 557 31,300 1,300 Climbing Miami Center
Fri 12:12:42 PM 27.4158 -81.7533 335° Northwest 479 551 32,900 1,300 Climbing Miami Center
Fri 12:13:42 PM 27.5369 -81.8122 337° Northwest 473 544 33,900 1,000 Climbing Miami Center
Fri 12:14:42 PM 27.6564 -81.8642 339° North 468 539 34,900 1,000 Climbing Miami Center
Fri 12:15:42 PM 27.7611 -81.9133 337° Northwest 463 533 35,900 370 Climbing Miami Center
Fri 12:17:24 PM 27.9611 -82.0044 338° Northwest 464 534 35,900 37 Level Jacksonville Center
Fri 12:18:24 PM 28.0681 -82.0858 326° Northwest 451 519 36,000  Climbing Jacksonville Center
Fri 12:19:24 PM 28.1647 -82.1722 322° Northwest 451 519 35,900 -50 Descending Jacksonville Center
Fri 12:20:24 PM 28.2631 -82.2611 321° Northwest 451 519 35,900 50 Level Jacksonville Center
Fri 12:21:24 PM 28.3617 -82.3500 322° Northwest 451 519 36,000 50 Climbing Jacksonville Center
Fri 12:22:24 PM 28.4600 -82.4392 321° Northwest 451 519 36,000 -50 Level Jacksonville Center
Fri 12:23:24 PM 28.5564 -82.5261 322° Northwest 451 519 35,900  Descending Jacksonville Center
Fri 12:24:24 PM 28.6567 -82.6181 321° Northwest 451 519 36,000  Climbing Jacksonville Center
Fri 12:25:24 PM 28.7508 -82.7008 322° Northwest 444 511 35,900  Descending Jacksonville Center
Fri 12:26:24 PM 28.8489 -82.7906 321° Northwest 444 511 36,000 50 Climbing Jacksonville Center
Fri 12:27:24 PM 28.9472 -82.8783 322° Northwest 444 511 36,000 -50 Level Jacksonville Center
Fri 12:28:24 PM 29.0389 -82.9661 320° Northwest 444 511 35,900 -50 Descending Jacksonville Center
Fri 12:29:24 PM 29.1328 -83.0494 322° Northwest 439 505 35,900  Level Jacksonville Center
Fri 12:30:24 PM 29.2244 -83.1353 321° Northwest 434 499 35,900  Level Jacksonville Center
Fri 12:31:24 PM 29.3203 -83.2214 322° Northwest 434 499 35,900  Level Jacksonville Center
Fri 12:32:24 PM 29.4161 -83.3217 318° Northwest 429 494 35,900  Level Jacksonville Center
Fri 12:33:24 PM 29.4742 -83.4436 299° West 424 488 35,900  Level Jacksonville Center
Fri 12:34:24 PM 29.5278 -83.5681 296° West 429 494 35,900  Level Jacksonville Center
Fri 12:35:24 PM 29.5833 -83.6972 296° West 434 499 35,900  Level Jacksonville Center
Fri 12:36:24 PM 29.6367 -83.8244 296° West 439 505 35,900  Level Jacksonville Center
Fri 12:37:24 PM 29.6922 -83.9494 297° West 445 512 35,900 50 Level Jacksonville Center
Fri 12:38:24 PM 29.7494 -84.0719 298° West 445 512 36,000  Climbing Jacksonville Center
Fri 12:39:24 PM 29.8092 -84.1611 308° West 440 506 35,900 -50 Descending Jacksonville Center
Fri 12:40:24 PM 29.8914 -84.2844 308° West 440 506 35,900  Level Jacksonville Center
Fri 12:41:24 PM 29.9633 -84.3981 306° West 440 506 35,900  Level Jacksonville Center
Fri 12:42:24 PM 30.0392 -84.5122 308° West 440 506 35,900 50 Level Jacksonville Center
Fri 12:43:24 PM 30.1128 -84.6264 307° West 445 512 36,000 50 Climbing Jacksonville Center
Fri 12:44:24 PM 30.1886 -84.7358 309° West 445 512 36,000  Level Jacksonville Center
Fri 12:45:24 PM 30.2619 -84.8478 307° West 445 512 36,000  Level Jacksonville Center
Fri 12:46:24 PM 30.3081 -84.9761 293° West 440 506 36,000 -50 Level Jacksonville Center
Fri 12:47:24 PM 30.3264 -85.1139 279° West 424 488 35,900 -50 Descending Jacksonville Center
Fri 12:48:24 PM 30.3450 -85.2514 279° West 429 494 35,900  Level Jacksonville Center
Fri 12:49:24 PM 30.3653 -85.3867 280° West 434 499 35,900  Level Jacksonville Center
Fri 12:50:24 PM 30.3833 -85.5269 279° West 434 499 35,900  Level Jacksonville Center
Fri 12:51:24 PM 30.4031 -85.6767 279° West 434 499 35,900  Level Jacksonville Center
Fri 12:52:24 PM 30.4208 -85.8194 278° West 439 505 35,900 50 Level Jacksonville Center
Fri 12:53:24 PM 30.4383 -85.9572 278° West 439 505 36,000 50 Climbing Jacksonville Center
Fri 12:54:24 PM 30.4558 -86.1000 278° West 444 511 36,000  Level Jacksonville Center
Fri 12:55:24 PM 30.4731 -86.2378 278° West 444 511 36,000  Level Jacksonville Center
Fri 12:56:24 PM 30.4922 -86.3783 279° West 444 511 36,000  Level Jacksonville Center
Fri 12:57:24 PM 30.5050 -86.5186 276° West 443 510 36,000 -50 Level Jacksonville Center
Fri 12:58:24 PM 30.5072 -86.6633 271° West 443 510 35,900 -50 Descending Jacksonville Center
Fri 12:59:24 PM 30.5092 -86.8031 271° West 443 510 35,900  Level Jacksonville Center
Fri 01:00:24 PM 30.5089 -86.9431 270° West 443 510 35,900 50 Level Jacksonville Center
Fri 01:01:24 PM 30.5114 -87.0661 271° West 443 510 36,000 50 Climbing Jacksonville Center
Fri 01:02:24 PM 30.5128 -87.2083 271° West 443 510 36,000  Level Jacksonville Center
Fri 01:03:24 PM 30.5122 -87.3458 270° West 438 504 36,000  Level Jacksonville Center
Fri 01:05:35 PM 30.5150 -87.6511 271° West 433 498 36,000  Level Houston Center
Fri 01:06:38 PM 30.5161 -87.7917 271° West 435 501 36,000  Level Houston Center
Fri 01:07:40 PM 30.5158 -87.9336 270° West 438 504 36,000 -48 Level Houston Center
Fri 01:08:42 PM 30.5164 -88.0758 270° West 438 504 35,900  Descending Houston Center
Fri 01:09:44 PM 30.5169 -88.2494 270° West 444 511 36,000 48 Climbing Houston Center
Fri 01:10:46 PM 30.5153 -88.3947 269° West 446 513 36,000  Level Houston Center
Fri 01:11:48 PM 30.5153 -88.5403 270° West 450 518 36,000  Level Houston Center
Fri 01:12:50 PM 30.5156 -88.6856 270° West 450 518 36,000  Level Houston Center
Fri 01:13:52 PM 30.5142 -88.8306 269° West 450 518 36,000 -48 Level Houston Center
Fri 01:14:54 PM 30.5153 -89.0000 270° West 451 519 35,900 -48 Descending Houston Center
Fri 01:15:57 PM 30.5150 -89.1444 270° West 450 518 35,900  Level Houston Center
Fri 01:16:59 PM 30.5133 -89.2883 269° West 448 516 35,900  Level Houston Center
Fri 01:18:01 PM 30.5136 -89.4336 270° West 452 520 35,900  Level Houston Center
Fri 01:19:03 PM 30.5131 -89.5792 270° West 455 524 35,900  Level Houston Center
Fri 01:20:05 PM 30.5128 -89.7514 270° West 452 520 35,900  Level Houston Center
Fri 01:21:07 PM 30.5097 -89.8953 269° West 456 525 35,900  Level Houston Center
Fri 01:22:09 PM 30.5072 -90.0400 269° West 459 528 35,900  Level Houston Center
Fri 01:23:11 PM 30.5050 -90.1881 269° West 469 540 35,900  Level Houston Center
Fri 01:24:14 PM 30.5031 -90.3644 269° West 462 532 35,900  Level Houston Center
Fri 01:25:16 PM 30.4994 -90.5131 268° West 465 535 35,900  Level Houston Center
Fri 01:26:18 PM 30.4978 -90.6622 269° West 466 536 35,900  Level Houston Center
Fri 01:27:20 PM 30.4936 -90.8133 268° West 471 542 35,900  Level Houston Center
Fri 01:28:22 PM 30.4903 -90.9636 269° West 471 542 35,900 48 Level Houston Center
Fri 01:29:24 PM 30.4772 -91.1142 264° West 470 541 36,000 48 Climbing Houston Center
Fri 01:30:26 PM 30.4558 -91.2931 262° West 470 541 36,000 -48 Level Houston Center
Fri 01:31:28 PM 30.4392 -91.4419 263° West 468 539 35,900 -48 Descending Houston Center
Fri 01:32:31 PM 30.4203 -91.5906 262° West 466 536 35,900 48 Level Houston Center
Fri 01:33:33 PM 30.4000 -91.7522 262° West 467 537 36,000 48 Climbing Houston Center
Fri 01:34:35 PM 30.3825 -91.9019 262° West 468 539 36,000  Level Houston Center
Fri 01:35:37 PM 30.3633 -92.0522 262° West 471 542 36,000  Level Houston Center
Fri 01:36:39 PM 30.3439 -92.2017 261° West 469 540 36,000  Level Houston Center
Fri 01:37:41 PM 30.3258 -92.3528 262° West 466 536 36,000 -48 Level Houston Center
Fri 01:38:43 PM 30.3069 -92.4989 262° West 460 529 35,900 -48 Descending Houston Center
Fri 01:39:45 PM 30.2836 -92.6764 261° West 464 534 35,900  Level Houston Center
Fri 01:40:48 PM 30.2644 -92.8222 261° West 461 531 35,900 48 Level Houston Center
Fri 01:41:50 PM 30.2456 -92.9686 262° West 460 529 36,000  Climbing Houston Center
Fri 01:42:52 PM 30.2258 -93.1147 261° West 459 528 35,900 -48 Descending Houston Center
Fri 01:43:54 PM 30.2061 -93.2611 261° West 458 527 35,900  Level Houston Center
Fri 01:44:56 PM 30.1847 -93.4078 260° West 457 526 35,900  Level Houston Center
Fri 01:45:58 PM 30.1664 -93.5564 262° West 457 526 35,900  Level Houston Center
Fri 01:47:00 PM 30.1422 -93.7317 261° West 455 524 35,900 48 Level Houston Center
Fri 01:48:03 PM 30.1217 -93.8753 261° West 452 520 36,000  Climbing Houston Center
Fri 01:49:05 PM 30.1025 -94.0172 261° West 450 518 35,900 -48 Descending Houston Center
Fri 01:50:07 PM 30.0819 -94.1600 261° West 452 520 35,900 48 Level Houston Center
Fri 01:51:09 PM 30.0622 -94.3036 261° West 454 522 36,000 48 Climbing Houston Center
Fri 01:52:11 PM 30.0411 -94.4461 260° West 455 524 36,000  Level Houston Center
Fri 01:53:13 PM 30.0211 -94.5928 261° West 460 529 36,000  Level Houston Center
Fri 01:54:15 PM 29.9961 -94.7631 260° West 453 521 36,000  Level Houston Center
Fri 01:55:17 PM 29.9753 -94.9058 260° West 453 521 36,000  Level Houston Center
Fri 01:56:19 PM 29.9544 -95.0489 260° West 456 525 36,000  Level Houston Center
Fri 01:57:22 PM 29.9336 -95.1917 260° West 457 526 36,000  Level Houston Center
Fri 01:58:24 PM 29.9081 -95.3619 260° West 456 525 36,000  Level Houston Center
Fri 01:59:26 PM 29.8864 -95.5044 260° West 455 524 36,000  Level Houston Center
Fri 02:00:28 PM 29.8650 -95.6461 260° West 455 524 36,000  Level Houston Center
Fri 02:01:30 PM 29.8406 -95.7875 259° West 454 522 36,000  Level Houston Center
Fri 02:02:32 PM 29.8186 -95.9297 260° West 454 522 36,000  Level Houston Center
Fri 02:03:34 PM 29.8039 -96.0753 263° West 454 522 36,000 -48 Level Houston Center
Fri 02:04:36 PM 29.8575 -96.2233 293° West 418 481 35,900 -48 Descending Houston Center
Fri 02:05:39 PM 29.9067 -96.3444 295° West 420 483 35,900 48 Level Houston Center
Fri 02:06:41 PM 29.9533 -96.4664 294° West 419 482 36,000  Climbing Houston Center
Fri 02:07:43 PM 30.0025 -96.5847 296° West 414 476 35,900 -97 Descending Houston Center
Fri 02:08:45 PM 30.0489 -96.7058 294° West 415 478 35,800 -1,258 Descending Houston Center
Fri 02:09:47 PM 30.1075 -96.8519 295° West 418 481 33,300 -2,226 Descending Houston Center
Fri 02:10:49 PM 30.1561 -96.9778 294° West 434 499 31,200 -1,113 Descending Houston Center
Fri 02:11:51 PM 30.2006 -97.1150 291° West 447 514 31,000 -968 Descending Houston Center
Fri 02:12:53 PM 30.1742 -97.2533 258° West 444 511 29,200 -2,016 Descending Houston Center
Fri 02:13:56 PM 30.1169 -97.3772 242° Southwest 435 501 26,800 -2,784 Descending Houston Center
Fri 02:14:58 PM 30.0581 -97.5131 243° Southwest 412 474 23,400 -3,048 Descending Houston Center
Fri 02:16:00 PM 30.0464 -97.6367 264° West 383 441 20,500 -3,435 Descending Houston Center
Fri 02:17:02 PM 30.0136 -97.7581 253° West 372 428 16,300 -3,774 Descending Houston Center
Fri 02:18:04 PM 29.9306 -97.8314 217° Southwest 373 429 12,700 -2,419 Descending Houston Center
Fri 02:19:06 PM 29.8700 -97.9267 234° Southwest 343 395 11,300 -1,113 Descending Houston Center
Fri 02:20:08 PM 29.8339 -98.0142 245° Southwest 303 349 10,400 -1,220 Descending Houston Center
Fri 02:21:09 PM 29.7992 -98.0958 244° Southwest 278 320 8,800 -1,587 Descending Houston Center
Fri 02:22:09 PM 29.7631 -98.1797 244° Southwest 274 315 7,200 -1,286 Descending Houston Center
Fri 02:23:15 PM 29.7283 -98.2617 244° Southwest 265 305 6,100 -563 Descending Houston Center
Fri 02:24:17 PM 29.6964 -98.3367 244° Southwest 262 302 6,000  Descending Houston Center
Fri 02:25:19 PM 29.6625 -98.4164 244° Southwest 260 299 6,100 -148 Climbing Houston Center
Fri 02:26:19 PM 29.6694 -98.4847 277° West 246 283 5,700 -726 Descending Houston Center
Fri 02:27:23 PM 29.7069 -98.5497 304° West 249 287 4,600 -982 Descending Houston Center
Fri 02:28:09 PM 29.7206 -98.6083 285° West 235 270 3,900 -372 Descending Houston Center
Fri 02:29:16 PM 29.6689 -98.6169 188° South 202 232 3,900 -246 Level Houston Center
Fri 02:30:11 PM 29.6292 -98.5953 155° Southeast 168 193 3,400 -793 Descending Houston Center
Fri 02:31:17 PM 29.5939 -98.5539 134° Southeast 147 169 2,300 -797 Descending Houston Center
Fri 02:32:34 PM 29.5653 -98.5139 129° Southeast 129 148 1,500 -639 Descending Houston Center
Fri 02:33:19 PM 29.5483 -98.4919 132° Southeast 123 142 1,000 -667 Descending Houston Center
Fri 02:35:00 PM 29.5340 -98.4691 180° South  Level Estimated
Fri 02:42:00 PM 29.5333 -98.4667 16° North  Level FlightAware Approximate

Login

Don't have an account? Register now (free) for customized features, flight alerts, and more!